Peotone Weather

Nearby METAR Reports

 

KIGQ - Lansing, Illinois, USA
Distance from station: NE 19mi, 30km
Updated: Fri, 04-Dec-2020 7:55am CST
Clear
Clear
 Wind from SW
Wind: SW 8 mph , 13 km/h
Temperature: 34°F , 1°C
Wind Chill: 27°F , -3°C
Dew Point: 27°F , -3°C
Humidity: 75%
Barometer: 29.93 inHg , 1013.5 hPa
Clouds: Clear
Visibility: 10 miles , 16 km
2020/12/04 13:55 KIGQ 041355Z AUTO 23007KT 10SM CLR 01/M03 A2993 RMK AO2 T00051027
KIKK - Kankakee, Illinois, USA
Distance from station: S 19mi, 30km
Updated: Fri, 04-Dec-2020 7:56am CST
Clear
Clear
 Wind from SW
Wind: SW 8 mph , 13 km/h
Temperature: 30°F , -1°C
Wind Chill: 22°F , -6°C
Dew Point: 27°F , -3°C
Humidity: 86%
Barometer: 29.99 inHg , 1015.6 hPa
Clouds: Clear
Visibility: 10 miles , 16 km
2020/12/04 13:56 KIKK 041356Z AUTO 23007KT 10SM CLR M01/M03 A2999 RMK AO2
 
KSJC - Joliet, Illinois, USA
Distance from station: WNW 24mi, 38km
Updated: Fri, 04-Dec-2020 7:53am CST
Clear
Clear
 Wind from S
Wind: S 3 mph , 6 km/h
Temperature: 43°F , 6°C
Dew Point: 36°F , 2°C
Humidity: 76%
Barometer: 30.27 inHg , 1025.1 hPa
Clouds: Clear
Visibility: 10 miles , 16 km
2020/12/04 13:53 KSJC 041353Z 17003KT 10SM CLR 06/02 A3027 RMK AO2 SLP250 T00610022
KLOT - Romeoville, Illinois, USA
Distance from station: NW 26mi, 41km
Updated: Fri, 04-Dec-2020 7:55am CST
Clear
Clear
 Wind from WSW
Wind: WSW 12 mph , 19 km/h
Temperature: 32°F , 0°C
Wind Chill: 23°F , -5°C
Dew Point: 28°F , -2°C
Humidity: 87%
Barometer: 29.92 inHg , 1013.2 hPa
Clouds: Clear
Visibility: 10 miles , 16 km
2020/12/04 13:55 KLOT 041355Z AUTO 24010KT 10SM CLR 00/M02 A2992 RMK AO2 T00001023
 
KMDW - Midway Airport Chicago, Illinois, USA
Distance from station: N 31mi, 50km
Updated: Fri, 04-Dec-2020 7:53am CST
Few Clouds
Few Clouds
 Wind from SW
Wind: SW 13 mph , 20 km/h
Temperature: 34°F , 1°C
Wind Chill: 25°F , -4°C
Dew Point: 25°F , -4°C
Humidity: 70%
Barometer: 29.90 inHg , 1012.5 hPa
Clouds: Few Clouds
Visibility: 10 miles , 16 km
Cloud details: Few Clouds 9000 ft
2020/12/04 13:53 KMDW 041353Z 23011KT 10SM FEW090 01/M04 A2990 RMK AO2 SLP135 T00061039
KC09 - Morris, Illinois, USA
Distance from station: W 34mi, 54km
Updated: Fri, 04-Dec-2020 7:55am CST
Clear
Clear
 Wind from WSW
Wind: WSW 9 mph , 15 km/h
Temperature: 32°F , 0°C
Wind Chill: 24°F , -4°C
Dew Point: 28°F , -2°C
Humidity: 87%
Barometer: 29.93 inHg , 1013.5 hPa
Clouds: Clear
Visibility: 10 miles , 16 km
2020/12/04 13:55 KC09 041355Z AUTO 24008KT 10SM CLR 00/M02 A2993 RMK AO2 T10041022

Metar display script from Saratoga-Weather.org